This is the latest recevied weather packets stored in our database for station/object DO1SC. If no packets are shown the sender has not sent any weather packets the latest 10 day(s).
| Time | Temp. | Humidity | Pressure | Rain* | Wind** | Luminosity | Snow |
|---|---|---|---|---|---|---|---|
| 1777730716 | 22.78° C | 22% | 1021.2 hPa | - | - | 497 W/m² | - |
| 1777730131 | 22.78° C | 26% | 1021.3 hPa | - | - | 519 W/m² | - |
| 1777728929 | 22.78° C | 25% | 1021.5 hPa | - | - | 555 W/m² | - |
| 1777728321 | 22.78° C | 25% | 1021.7 hPa | - | - | 588 W/m² | - |
| 1777727736 | 22.78° C | 24% | 1021.6 hPa | - | - | 578 W/m² | - |
| 1777727125 | 22.78° C | 24% | 1021.9 hPa | - | - | 620 W/m² | - |
| 1777726536 | 22.78° C | 26% | 1022.1 hPa | - | - | 631 W/m² | - |
| 1777725927 | 22.22° C | 25% | 1022.2 hPa | - | - | 641 W/m² | - |
| 1777725318 | 22.22° C | 27% | 1022.3 hPa | - | - | 651 W/m² | - |
| 1777724729 | 22.22° C | 25% | 1022.4 hPa | - | - | 660 W/m² | - |
| 1777724122 | 21.67° C | 27% | 1022.5 hPa | - | - | 667 W/m² | - |
| 1777723532 | 22.22° C | 27% | 1022.6 hPa | - | - | 672 W/m² | - |
| 1777722924 | 21.67° C | 28% | 1022.8 hPa | - | - | 670 W/m² | - |
| 1777722334 | 22.22° C | 27% | 1022.9 hPa | - | - | 662 W/m² | - |
| 1777721725 | 21.67° C | 29% | 1023.1 hPa | - | - | 675 W/m² | - |
| 1777721134 | 21.67° C | 31% | 1023.2 hPa | - | - | 623 W/m² | - |
| 1777720526 | 21.67° C | 30% | 1023.4 hPa | - | - | 673 W/m² | - |
| 1777719917 | 21.11° C | 33% | 1023.4 hPa | - | - | 674 W/m² | - |
| 1777719328 | 21.11° C | 32% | 1023.5 hPa | - | - | 673 W/m² | - |
| 1777718719 | 21.11° C | 33% | 1023.6 hPa | - | - | 667 W/m² | - |
| 1777718130 | 20.56° C | 33% | 1023.6 hPa | - | - | 659 W/m² | - |
| 1777717522 | 20.56° C | 34% | 1023.7 hPa | - | - | 631 W/m² | - |
| 1777716933 | 20.56° C | 35% | 1023.9 hPa | - | - | 637 W/m² | - |
| 1777716325 | 20.56° C | 34% | 1024 hPa | - | - | 629 W/m² | - |
| 1777715736 | 20° C | 35% | 1024.1 hPa | - | - | 625 W/m² | - |
* Rain since midnight (hover to see other rain measurements)
** Current wind speed in m/s (hover to see current wind gust speed)